createdAt,value
2023-05-14T00:00:45.374Z,5.47
2023-05-14T00:03:12.971Z,5.63
2023-05-14T00:05:40.567Z,3.35
2023-05-14T00:08:08.117Z,5.22
2023-05-14T00:10:35.534Z,8.20
2023-05-14T00:13:02.926Z,3.45
2023-05-14T00:15:31.315Z,4.03
2023-05-14T00:17:59.940Z,5.55
2023-05-14T00:20:27.262Z,2.83
2023-05-14T00:22:54.651Z,3.50
2023-05-14T00:25:21.992Z,4.80
2023-05-14T00:27:49.280Z,2.70
2023-05-14T00:30:16.652Z,3.35
2023-05-14T00:32:44.138Z,4.72
2023-05-14T00:35:11.498Z,4.13
2023-05-14T00:37:38.844Z,3.58
2023-05-14T00:40:07.327Z,7.13
2023-05-14T00:42:34.853Z,4.05
2023-05-14T00:45:02.207Z,4.47
2023-05-14T00:47:29.577Z,3.70
2023-05-14T00:49:56.978Z,5.18
2023-05-14T00:52:24.320Z,3.30
2023-05-14T00:54:51.796Z,4.25
2023-05-14T00:57:19.397Z,5.43
2023-05-14T00:59:46.881Z,6.00
2023-05-14T01:02:14.225Z,3.65
2023-05-14T01:04:41.623Z,4.57
2023-05-14T01:07:14.927Z,5.07
2023-05-14T01:09:53.298Z,3.95
2023-05-14T01:12:27.111Z,4.75
2023-05-14T01:15:03.442Z,5.13
2023-05-14T01:17:33.619Z,3.90
2023-05-14T01:20:01.096Z,4.75
2023-05-14T01:22:28.442Z,2.70
2023-05-14T01:24:56.074Z,5.45
2023-05-14T01:27:39.480Z,4.55
2023-05-14T01:30:22.505Z,6.13
2023-05-14T01:32:52.711Z,2.90
2023-05-14T01:35:21.180Z,4.32
2023-05-14T01:37:50.493Z,2.70
2023-05-14T01:40:17.963Z,3.63
2023-05-14T01:42:45.487Z,5.47
2023-05-14T01:45:12.798Z,4.50
2023-05-14T01:47:40.125Z,1.95
2023-05-14T01:50:07.686Z,2.75
2023-05-14T01:52:35.117Z,2.05
2023-05-14T01:55:02.471Z,3.25
2023-05-14T01:57:29.850Z,3.30
2023-05-14T01:59:57.191Z,2.92
2023-05-14T02:02:24.617Z,3.50
2023-05-14T02:04:52.363Z,3.33
2023-05-14T02:07:19.721Z,4.70
2023-05-14T02:10:17.968Z,3.58
2023-05-14T02:12:45.367Z,4.93
2023-05-14T02:15:12.820Z,3.42
2023-05-14T02:17:40.271Z,3.30
2023-05-14T02:20:08.023Z,4.28
2023-05-14T02:22:35.392Z,3.67
2023-05-14T02:25:02.793Z,3.53
2023-05-14T02:27:30.137Z,7.10
2023-05-14T02:30:00.852Z,3.53
2023-05-14T02:32:28.853Z,5.22
2023-05-14T02:34:56.316Z,5.47
2023-05-14T02:37:23.672Z,4.63
2023-05-14T02:39:51.037Z,5.35
2023-05-14T02:42:18.352Z,3.55
2023-05-14T02:44:45.970Z,2.28
2023-05-14T02:47:13.376Z,6.30
2023-05-14T02:49:40.732Z,3.60
2023-05-14T02:52:08.186Z,4.45
2023-05-14T02:54:35.607Z,4.25
2023-05-14T02:57:02.972Z,4.68
2023-05-14T02:59:31.668Z,5.00
2023-05-14T03:01:59.588Z,3.47
2023-05-14T03:04:27.553Z,3.60
2023-05-14T03:06:54.856Z,2.38
2023-05-14T03:09:22.195Z,3.42
2023-05-14T03:11:49.604Z,3.15
2023-05-14T03:14:17.032Z,3.40
2023-05-14T03:16:44.462Z,3.72
2023-05-14T03:19:11.921Z,6.32
2023-05-14T03:21:39.476Z,3.67
2023-05-14T03:24:07.130Z,4.32
2023-05-14T03:26:34.550Z,3.70
2023-05-14T03:29:01.943Z,6.53
2023-05-14T03:31:29.282Z,6.63
2023-05-14T03:33:56.627Z,4.22
2023-05-14T03:36:23.973Z,3.47
2023-05-14T03:38:51.332Z,5.90
2023-05-14T03:41:20.078Z,4.95
2023-05-14T03:43:47.461Z,4.75
2023-05-14T03:46:14.868Z,6.95
2023-05-14T03:48:42.804Z,6.90
2023-05-14T03:51:10.160Z,4.28
2023-05-14T03:53:37.577Z,5.97
2023-05-14T03:56:05.067Z,10.82
2023-05-14T03:58:32.423Z,6.05
2023-05-14T04:01:00.489Z,4.95
2023-05-14T04:03:28.089Z,5.28
2023-05-14T04:05:55.850Z,7.85
2023-05-14T04:08:23.156Z,3.22
2023-05-14T04:10:51.655Z,5.68
2023-05-14T04:13:19.016Z,5.03
2023-05-14T04:15:46.424Z,4.65
2023-05-14T04:18:14.097Z,6.32
2023-05-14T04:20:41.477Z,4.15
2023-05-14T04:23:08.785Z,4.32
2023-05-14T04:25:36.090Z,3.88
2023-05-14T04:28:03.462Z,3.75
2023-05-14T04:30:30.793Z,3.22
2023-05-14T04:32:58.329Z,3.47
2023-05-14T04:35:25.666Z,6.75
2023-05-14T04:37:53.095Z,3.65
2023-05-14T04:40:20.417Z,3.85
2023-05-14T04:42:47.744Z,4.63
2023-05-14T04:45:15.092Z,4.15
2023-05-14T04:47:42.660Z,4.35
2023-05-14T04:50:10.413Z,4.38
2023-05-14T04:52:37.745Z,4.70
2023-05-14T04:55:05.249Z,4.43
2023-05-14T04:57:32.634Z,7.00
2023-05-14T05:00:00.011Z,6.47
2023-05-14T05:02:27.462Z,2.90
2023-05-14T05:04:54.838Z,2.40
2023-05-14T05:07:22.161Z,5.65
2023-05-14T05:09:49.879Z,4.90
2023-05-14T05:12:17.282Z,3.58
2023-05-14T05:14:44.665Z,4.07
2023-05-14T05:17:11.960Z,4.47
2023-05-14T05:19:43.682Z,2.97
2023-05-14T05:22:12.057Z,3.65
2023-05-14T05:24:39.527Z,4.65
2023-05-14T05:27:07.421Z,3.08
2023-05-14T05:29:35.608Z,3.60
2023-05-14T05:32:03.508Z,3.03
2023-05-14T05:34:31.845Z,4.47
2023-05-14T05:36:59.688Z,2.83
2023-05-14T05:39:27.724Z,6.13
2023-05-14T05:41:55.539Z,5.70
2023-05-14T05:44:23.156Z,3.05
2023-05-14T05:46:54.319Z,3.45
2023-05-14T05:49:22.192Z,3.03
2023-05-14T05:51:49.688Z,4.22
2023-05-14T05:54:17.539Z,2.28
2023-05-14T05:56:45.568Z,3.33
2023-05-14T05:59:13.434Z,3.78
2023-05-14T06:01:43.883Z,4.55
2023-05-14T06:04:11.714Z,3.38
2023-05-14T06:06:39.549Z,5.28
2023-05-14T06:09:07.167Z,2.67
2023-05-14T06:11:34.518Z,3.15
2023-05-14T06:14:03.136Z,5.30
2023-05-14T06:16:30.630Z,2.97
2023-05-14T06:18:58.086Z,1.83
2023-05-14T06:21:25.558Z,2.75
2023-05-14T06:23:52.916Z,4.47
2023-05-14T06:26:20.395Z,3.60
2023-05-14T06:28:47.738Z,4.47
2023-05-14T06:31:15.179Z,2.75
2023-05-14T06:33:42.532Z,1.52
2023-05-14T06:36:10.211Z,2.33
2023-05-14T06:38:37.765Z,1.85
2023-05-14T06:41:05.143Z,5.13
2023-05-14T06:43:32.473Z,2.83
2023-05-14T06:46:00.348Z,1.80
2023-05-14T06:48:29.594Z,1.38
2023-05-14T06:50:57.069Z,1.40
2023-05-14T06:53:24.597Z,3.63
2023-05-14T06:55:52.029Z,4.57
2023-05-14T06:58:19.514Z,1.23
2023-05-14T07:00:46.913Z,1.73
2023-05-14T07:03:14.288Z,2.38
2023-05-14T07:05:41.667Z,4.55
2023-05-14T07:08:08.990Z,2.90
2023-05-14T07:10:36.480Z,1.60
2023-05-14T07:13:03.948Z,2.25
2023-05-14T07:15:31.302Z,1.90
2023-05-14T07:17:58.732Z,2.35
2023-05-14T07:20:26.460Z,2.50
2023-05-14T07:22:56.406Z,3.38
2023-05-14T07:25:23.765Z,1.80
2023-05-14T07:27:51.088Z,1.75
2023-05-14T07:30:18.800Z,2.35
2023-05-14T07:32:46.358Z,2.70
2023-05-14T07:35:13.780Z,2.33
2023-05-14T07:37:41.211Z,2.55
2023-05-14T07:40:08.805Z,2.40
2023-05-14T07:42:37.355Z,7.25
2023-05-14T07:45:05.369Z,2.60
2023-05-14T07:47:33.005Z,2.92
2023-05-14T07:50:00.626Z,2.42
2023-05-14T07:52:28.142Z,2.63
2023-05-14T07:54:55.539Z,3.42
2023-05-14T07:57:22.988Z,2.60
2023-05-14T07:59:50.502Z,3.63
2023-05-14T08:02:17.909Z,1.35
2023-05-14T08:04:45.569Z,2.20
2023-05-14T08:07:12.980Z,2.83
2023-05-14T08:09:40.376Z,1.23
2023-05-14T08:12:08.428Z,3.03
2023-05-14T08:14:35.882Z,2.50
2023-05-14T08:17:03.869Z,3.40
2023-05-14T08:19:31.308Z,1.15
2023-05-14T08:21:58.686Z,1.38
2023-05-14T08:24:32.273Z,5.00
2023-05-14T08:27:01.612Z,2.30
2023-05-14T08:29:29.816Z,2.55
2023-05-14T08:32:15.557Z,1.57
2023-05-14T08:34:50.038Z,1.67
2023-05-14T08:37:17.455Z,1.88
2023-05-14T08:39:44.846Z,1.48
2023-05-14T08:42:13.987Z,2.13
2023-05-14T08:44:49.134Z,1.95
2023-05-14T08:47:16.994Z,0.80
2023-05-14T08:49:45.391Z,0.93
2023-05-14T08:52:13.438Z,3.05
2023-05-14T08:54:41.319Z,0.93
2023-05-14T08:57:12.151Z,1.10
2023-05-14T08:59:39.623Z,3.30
2023-05-14T09:02:07.948Z,2.25
2023-05-14T09:04:35.546Z,3.45
2023-05-14T09:07:13.078Z,1.35
2023-05-14T09:09:42.076Z,1.58
2023-05-14T09:12:10.287Z,1.40
2023-05-14T09:14:37.721Z,1.02
2023-05-14T09:17:05.172Z,1.02
2023-05-14T09:19:32.588Z,0.45
2023-05-14T09:22:00.033Z,1.63
2023-05-14T09:24:31.089Z,1.67
2023-05-14T09:26:59.163Z,2.97
2023-05-14T09:29:26.892Z,1.83
2023-05-14T09:31:55.290Z,1.00
2023-05-14T09:34:26.326Z,3.63
2023-05-14T09:37:00.716Z,1.48
2023-05-14T09:39:28.457Z,1.35
2023-05-14T09:41:58.200Z,0.70
2023-05-14T09:44:25.840Z,1.33
2023-05-14T09:46:53.918Z,0.73
2023-05-14T09:49:21.430Z,0.80
2023-05-14T09:51:51.877Z,1.00
2023-05-14T09:54:19.304Z,1.27
2023-05-14T09:56:46.732Z,1.42
2023-05-14T09:59:14.216Z,1.15
2023-05-14T10:01:43.393Z,1.05
2023-05-14T10:04:11.991Z,0.98
2023-05-14T10:06:40.512Z,1.27
2023-05-14T10:09:14.656Z,1.95
2023-05-14T10:11:45.517Z,0.57
2023-05-14T10:14:21.777Z,0.40
2023-05-14T10:16:50.897Z,3.70
2023-05-14T10:19:19.249Z,0.60
2023-05-14T10:21:49.308Z,0.77
2023-05-14T10:24:17.004Z,0.52
2023-05-14T10:26:44.521Z,0.63
2023-05-14T10:29:14.129Z,1.08
2023-05-14T10:31:56.433Z,0.50
2023-05-14T10:34:46.230Z,0.60
2023-05-14T10:37:13.643Z,1.33
2023-05-14T10:39:43.557Z,1.38
2023-05-14T10:42:14.971Z,1.42
2023-05-14T10:44:51.175Z,1.23
2023-05-14T10:47:18.766Z,0.75
2023-05-14T10:49:49.017Z,0.82
2023-05-14T10:52:19.831Z,0.43
2023-05-14T10:55:11.325Z,0.50
2023-05-14T10:57:39.812Z,0.45
2023-05-14T11:00:09.076Z,0.70
2023-05-14T11:02:37.785Z,1.48
2023-05-14T11:05:14.055Z,0.30
2023-05-14T11:07:41.598Z,1.00
2023-05-14T11:10:14.043Z,0.60
2023-05-14T11:12:42.328Z,1.02
2023-05-14T11:15:11.237Z,0.63
2023-05-14T11:20:07.340Z,0.65
2023-05-14T11:22:35.610Z,1.08
2023-05-14T11:25:06.458Z,1.33
2023-05-14T11:27:39.546Z,1.77
2023-05-14T11:30:12.903Z,1.38
2023-05-14T11:32:41.147Z,1.67
2023-05-14T11:35:08.740Z,3.38
2023-05-14T11:37:36.120Z,0.93
2023-05-14T11:40:04.997Z,2.55
2023-05-14T11:42:32.435Z,1.15
2023-05-14T11:45:00.013Z,0.45
2023-05-14T11:47:27.415Z,0.68
2023-05-14T11:49:56.474Z,1.75
2023-05-14T11:54:51.110Z,0.30
2023-05-14T11:57:22.282Z,3.22
2023-05-14T11:59:55.755Z,2.65
2023-05-14T12:02:23.579Z,0.55
2023-05-14T12:04:54.767Z,1.77
2023-05-14T12:07:22.356Z,1.35
2023-05-14T12:09:50.840Z,1.95
2023-05-14T12:12:24.133Z,1.10
2023-05-14T12:14:52.782Z,0.95
2023-05-14T12:17:21.757Z,3.08
2023-05-14T12:22:17.863Z,0.63
2023-05-14T12:24:53.329Z,0.80
2023-05-14T12:27:22.648Z,1.85
2023-05-14T12:29:50.123Z,1.05
2023-05-14T12:32:18.170Z,3.88
2023-05-14T12:34:45.531Z,2.05
2023-05-14T12:37:15.398Z,1.50
2023-05-14T12:39:42.721Z,0.85
2023-05-14T12:42:10.040Z,1.40
2023-05-14T12:44:37.321Z,1.00
2023-05-14T12:47:04.802Z,1.60
2023-05-14T12:49:32.274Z,0.55
2023-05-14T12:52:09.698Z,0.65
2023-05-14T12:54:46.926Z,1.45
2023-05-14T12:57:14.277Z,1.63
2023-05-14T12:59:41.701Z,0.95
2023-05-14T13:02:09.221Z,1.33
2023-05-14T13:04:37.421Z,1.17
2023-05-14T13:07:04.889Z,0.90
2023-05-14T13:09:32.266Z,3.08
2023-05-14T13:11:59.610Z,0.63
2023-05-14T13:14:26.983Z,0.85
2023-05-14T13:16:54.401Z,0.98
2023-05-14T13:19:21.745Z,0.93
2023-05-14T13:21:49.162Z,1.65
2023-05-14T13:24:17.640Z,1.10
2023-05-14T13:26:45.162Z,0.80
2023-05-14T13:29:12.607Z,0.45
2023-05-14T13:31:39.903Z,0.98
2023-05-14T13:34:08.243Z,0.95
2023-05-14T13:36:39.593Z,0.68
2023-05-14T13:39:07.596Z,0.47
2023-05-14T13:41:35.880Z,0.55
2023-05-14T13:44:03.231Z,1.05
2023-05-14T13:46:30.866Z,0.60
2023-05-14T13:48:58.310Z,0.70
2023-05-14T13:51:25.651Z,0.55
2023-05-14T13:56:21.564Z,0.82
2023-05-14T13:58:49.429Z,0.40
2023-05-14T14:01:16.852Z,0.03
2023-05-14T14:03:44.250Z,0.90
2023-05-14T14:06:11.676Z,0.40
2023-05-14T14:08:39.096Z,1.42
2023-05-14T14:11:06.428Z,1.35
2023-05-14T14:13:33.900Z,0.70
2023-05-14T14:16:03.251Z,0.80
2023-05-14T14:18:30.836Z,1.35
2023-05-14T14:20:58.325Z,0.93
2023-05-14T14:23:25.717Z,0.98
2023-05-14T14:25:53.106Z,1.73
2023-05-14T14:28:20.497Z,1.30
2023-05-14T14:30:47.863Z,1.48
2023-05-14T14:33:15.254Z,3.15
2023-05-14T14:35:42.673Z,2.60
2023-05-14T14:38:10.052Z,1.98
2023-05-14T14:40:37.902Z,2.40
2023-05-14T14:43:05.568Z,2.50
2023-05-14T14:45:33.251Z,0.57
2023-05-14T14:48:19.294Z,1.67
2023-05-14T14:50:46.609Z,1.60
2023-05-14T14:53:13.999Z,2.40
2023-05-14T14:55:41.342Z,1.20
2023-05-14T14:58:08.727Z,3.63
2023-05-14T15:00:36.276Z,1.63
2023-05-14T15:03:04.189Z,2.03
2023-05-14T15:05:31.590Z,2.88
2023-05-14T15:07:58.934Z,1.85
2023-05-14T15:10:28.734Z,2.17
2023-05-14T15:12:58.642Z,1.73
2023-05-14T15:15:26.499Z,1.50
2023-05-14T15:17:54.271Z,1.40
2023-05-14T15:20:21.701Z,1.90
2023-05-14T15:22:52.454Z,3.80
2023-05-14T15:25:20.845Z,1.98
2023-05-14T15:27:48.837Z,1.33
2023-05-14T15:30:16.322Z,3.50
2023-05-14T15:32:43.946Z,3.20
2023-05-14T15:35:11.706Z,1.95
2023-05-14T15:37:40.238Z,2.40
2023-05-14T15:40:11.476Z,1.02
2023-05-14T15:42:40.040Z,1.65
2023-05-14T15:45:07.667Z,2.40
2023-05-14T15:47:35.180Z,1.27
2023-05-14T15:50:02.829Z,2.83
2023-05-14T15:52:30.339Z,1.95
2023-05-14T15:54:59.704Z,2.03
2023-05-14T15:57:27.860Z,1.40
2023-05-14T15:59:56.920Z,1.83
2023-05-14T16:04:51.273Z,1.95
2023-05-14T16:07:19.081Z,2.15
2023-05-14T16:09:46.495Z,2.03
2023-05-14T16:12:14.439Z,0.60
2023-05-14T16:14:42.252Z,4.60
2023-05-14T16:17:09.932Z,1.23
2023-05-14T16:19:37.891Z,1.30
2023-05-14T16:22:05.210Z,1.42
2023-05-14T16:24:32.685Z,0.55
2023-05-14T16:27:00.935Z,1.58
2023-05-14T16:29:28.439Z,2.17
2023-05-14T16:31:55.980Z,1.30
2023-05-14T16:34:23.419Z,2.33
2023-05-14T16:36:50.747Z,1.10
2023-05-14T16:39:18.200Z,2.45
2023-05-14T16:41:45.650Z,3.38
2023-05-14T16:44:13.060Z,2.28
2023-05-14T16:46:40.584Z,1.27
2023-05-14T16:49:07.907Z,1.17
2023-05-14T16:51:36.724Z,1.52
2023-05-14T16:54:04.249Z,2.17
2023-05-14T16:56:32.524Z,2.90
2023-05-14T16:58:59.879Z,1.17
2023-05-14T17:01:27.649Z,1.42
2023-05-14T17:03:55.063Z,0.95
2023-05-14T17:06:22.400Z,1.02
2023-05-14T17:08:50.060Z,1.27
2023-05-14T17:14:02.107Z,1.58
2023-05-14T17:16:29.691Z,1.92
2023-05-14T17:18:57.170Z,0.70
2023-05-14T17:21:24.733Z,1.45
2023-05-14T17:23:52.405Z,1.38
2023-05-14T17:26:20.029Z,0.90
2023-05-14T17:28:47.478Z,0.98
2023-05-14T17:31:14.852Z,0.95
2023-05-14T17:33:42.318Z,1.02
2023-05-14T17:36:09.848Z,1.27
2023-05-14T17:38:37.361Z,1.27
2023-05-14T17:41:04.781Z,0.50
2023-05-14T17:43:32.600Z,0.85
2023-05-14T17:46:00.237Z,0.68
2023-05-14T17:48:27.893Z,1.35
2023-05-14T17:50:55.618Z,1.08
2023-05-14T17:53:22.935Z,2.75
2023-05-14T17:55:50.426Z,0.30
2023-05-14T17:58:18.048Z,1.17
2023-05-14T18:00:45.638Z,0.47
2023-05-14T18:03:14.472Z,1.88
2023-05-14T18:05:41.955Z,0.20
2023-05-14T18:08:09.793Z,1.45
2023-05-14T18:10:37.257Z,0.45
2023-05-14T18:13:04.635Z,1.25
2023-05-14T18:15:32.020Z,1.15
2023-05-14T18:18:00.275Z,0.88
2023-05-14T18:20:27.718Z,2.80
2023-05-14T18:22:55.049Z,1.17
2023-05-14T18:25:23.722Z,0.60
2023-05-14T18:27:52.068Z,0.45
2023-05-14T18:30:19.919Z,0.98
2023-05-14T18:32:47.515Z,1.25
2023-05-14T18:35:15.050Z,0.85
2023-05-14T18:37:43.732Z,1.55
2023-05-14T18:40:12.633Z,1.42
2023-05-14T18:45:07.969Z,0.68
2023-05-14T18:47:35.464Z,0.50
2023-05-14T18:50:03.052Z,4.57
2023-05-14T18:52:30.720Z,1.38
2023-05-14T18:54:58.364Z,1.20
2023-05-14T18:57:29.531Z,0.75
2023-05-14T18:59:57.319Z,0.75
2023-05-14T19:02:25.301Z,3.00
2023-05-14T19:04:53.330Z,1.70
2023-05-14T19:07:21.553Z,3.80
2023-05-14T19:09:49.557Z,0.80
2023-05-14T19:12:17.660Z,2.10
2023-05-14T19:14:45.316Z,1.60
2023-05-14T19:17:12.916Z,2.10
2023-05-14T19:19:40.604Z,1.88
2023-05-14T19:22:08.147Z,1.23
2023-05-14T19:24:36.233Z,0.88
2023-05-14T19:27:03.626Z,1.65
2023-05-14T19:29:32.525Z,1.38
2023-05-14T19:31:59.943Z,1.08
2023-05-14T19:34:27.884Z,1.30
2023-05-14T19:36:55.641Z,1.67
2023-05-14T19:39:23.035Z,0.68
2023-05-14T19:41:50.511Z,1.70
2023-05-14T19:44:18.503Z,0.32
2023-05-14T19:46:46.004Z,0.80
2023-05-14T19:49:16.151Z,1.15
2023-05-14T19:51:43.961Z,0.80
2023-05-14T19:54:11.895Z,0.77
2023-05-14T19:56:39.262Z,0.80
2023-05-14T19:59:07.052Z,1.42
2023-05-14T20:01:35.302Z,0.68
2023-05-14T20:04:02.842Z,1.10
2023-05-14T20:06:30.705Z,0.93
2023-05-14T20:08:58.540Z,0.43
2023-05-14T20:11:26.077Z,0.20
2023-05-14T20:13:53.430Z,0.43
2023-05-14T20:16:21.192Z,0.40
2023-05-14T20:18:49.032Z,0.25
2023-05-14T20:21:16.771Z,0.25
2023-05-14T20:23:44.435Z,0.50
2023-05-14T20:26:11.954Z,0.73
2023-05-14T20:28:39.423Z,1.25
2023-05-14T20:31:06.797Z,0.85
2023-05-14T20:33:34.153Z,1.10
2023-05-14T20:36:04.575Z,0.20
2023-05-14T20:38:33.695Z,1.10
2023-05-14T20:41:01.212Z,2.20
2023-05-14T20:43:29.839Z,0.10
2023-05-14T20:45:59.044Z,0.10
2023-05-14T20:48:26.453Z,0.20
2023-05-14T20:50:53.789Z,1.02
2023-05-14T20:53:21.430Z,0.93
2023-05-14T20:55:48.774Z,0.32
2023-05-14T20:58:16.066Z,1.58
2023-05-14T21:00:43.536Z,0.35
2023-05-14T21:03:11.040Z,0.35
2023-05-14T21:05:40.274Z,0.38
2023-05-14T21:08:07.735Z,0.32
2023-05-14T21:10:35.059Z,0.68
2023-05-14T21:13:02.414Z,0.20
2023-05-14T21:15:30.813Z,1.83
2023-05-14T21:17:58.289Z,1.02
2023-05-14T21:20:25.693Z,0.90
2023-05-14T21:22:53.083Z,1.05
2023-05-14T21:25:20.641Z,1.88
2023-05-14T21:27:48.001Z,0.55
2023-05-14T21:30:15.537Z,0.70
2023-05-14T21:32:42.938Z,2.70
2023-05-14T21:35:10.515Z,0.38
2023-05-14T21:37:39.859Z,1.38
2023-05-14T21:40:09.506Z,0.95
2023-05-14T21:42:37.304Z,0.93
2023-05-14T21:45:04.917Z,1.73
2023-05-14T21:47:32.305Z,1.25
2023-05-14T21:49:59.786Z,0.50
2023-05-14T21:52:27.218Z,0.65
2023-05-14T21:54:54.740Z,0.50
2023-05-14T21:57:22.100Z,1.45
2023-05-14T21:59:49.410Z,1.48
2023-05-14T22:02:16.829Z,3.25
2023-05-14T22:04:44.297Z,2.38
2023-05-14T22:07:11.611Z,1.42
2023-05-14T22:09:39.020Z,1.08
2023-05-14T22:12:07.212Z,1.10
2023-05-14T22:14:34.627Z,1.80
2023-05-14T22:17:02.086Z,1.15
2023-05-14T22:19:29.459Z,2.55
2023-05-14T22:21:56.796Z,3.88
2023-05-14T22:24:24.282Z,0.88
2023-05-14T22:26:51.714Z,1.17
2023-05-14T22:29:19.059Z,1.08
2023-05-14T22:31:46.454Z,1.52
2023-05-14T22:34:13.758Z,1.45
2023-05-14T22:36:41.099Z,0.55
2023-05-14T22:39:09.311Z,0.50
2023-05-14T22:44:04.311Z,3.17
2023-05-14T22:46:31.742Z,0.70
2023-05-14T22:48:59.201Z,1.27
2023-05-14T22:51:26.636Z,1.15
2023-05-14T22:53:54.028Z,0.88
2023-05-14T22:56:21.844Z,1.27
2023-05-14T22:58:49.248Z,1.00
2023-05-14T23:01:16.931Z,2.00
2023-05-14T23:03:44.360Z,0.60
2023-05-14T23:06:14.494Z,0.80
2023-05-14T23:08:41.845Z,2.15
2023-05-14T23:11:09.209Z,1.15
2023-05-14T23:13:36.533Z,0.40
2023-05-14T23:16:22.500Z,2.80
2023-05-14T23:18:50.030Z,1.45
2023-05-14T23:21:17.429Z,1.30
2023-05-14T23:23:45.561Z,1.52
2023-05-14T23:26:13.061Z,0.50
2023-05-14T23:28:40.372Z,0.95
2023-05-14T23:31:07.877Z,1.23
2023-05-14T23:33:35.250Z,0.88
2023-05-14T23:36:02.637Z,1.80
2023-05-14T23:38:29.981Z,1.38
2023-05-14T23:40:57.451Z,1.23
2023-05-14T23:43:24.791Z,0.85
2023-05-14T23:45:52.286Z,1.35
2023-05-14T23:48:19.819Z,1.40
2023-05-14T23:50:47.265Z,1.77
2023-05-14T23:53:14.640Z,1.95
2023-05-14T23:55:42.031Z,0.68
2023-05-14T23:58:09.400Z,0.52
